sensor_id;sensor_type;location;lat;lon;timestamp;pressure;altitude;pressure_sealevel;temperature;humidity
25232;BME280;13176;51.140;6.290;2023-05-11T00:01:05;100612.31;;;15.37;97.82
25232;BME280;13176;51.140;6.290;2023-05-11T00:03:33;100704.09;;;15.95;97.60
25232;BME280;13176;51.140;6.290;2023-05-11T00:06:00;100719.78;;;15.98;97.43
25232;BME280;13176;51.140;6.290;2023-05-11T00:08:26;100705.25;;;15.87;98.16
25232;BME280;13176;51.140;6.290;2023-05-11T00:10:53;100725.34;;;15.89;97.89
25232;BME280;13176;51.140;6.290;2023-05-11T00:13:19;100690.66;;;15.78;97.51
25232;BME280;13176;51.140;6.290;2023-05-11T00:15:46;100644.25;;;15.51;98.10
25232;BME280;13176;51.140;6.290;2023-05-11T00:18:12;100691.34;;;15.83;98.44
25232;BME280;13176;51.140;6.290;2023-05-11T00:20:39;100704.31;;;15.89;98.32
25232;BME280;13176;51.140;6.290;2023-05-11T00:23:05;100637.81;;;15.60;98.47
25232;BME280;13176;51.140;6.290;2023-05-11T00:25:31;100709.16;;;16.01;99.17
25232;BME280;13176;51.140;6.290;2023-05-11T00:27:58;100694.94;;;16.05;98.93
25232;BME280;13176;51.140;6.290;2023-05-11T00:30:24;100691.63;;;16.00;98.50
25232;BME280;13176;51.140;6.290;2023-05-11T00:32:51;100617.66;;;15.60;98.30
25232;BME280;13176;51.140;6.290;2023-05-11T00:35:17;100715.66;;;16.14;98.12
25232;BME280;13176;51.140;6.290;2023-05-11T00:37:44;100639.41;;;15.65;98.46
25232;BME280;13176;51.140;6.290;2023-05-11T00:40:11;100722.63;;;16.16;99.16
25232;BME280;13176;51.140;6.290;2023-05-11T00:42:37;100706.97;;;16.12;98.88
25232;BME280;13176;51.140;6.290;2023-05-11T00:45:04;100713.94;;;16.13;99.05
25232;BME280;13176;51.140;6.290;2023-05-11T00:47:30;100652.88;;;15.81;98.62
25232;BME280;13176;51.140;6.290;2023-05-11T00:49:57;100696.44;;;16.12;98.49
25232;BME280;13176;51.140;6.290;2023-05-11T00:52:24;100725.38;;;16.38;98.11
25232;BME280;13176;51.140;6.290;2023-05-11T00:54:50;100645.72;;;16.07;97.30
25232;BME280;13176;51.140;6.290;2023-05-11T00:57:17;100704.72;;;16.49;96.45
25232;BME280;13176;51.140;6.290;2023-05-11T00:59:43;100721.84;;;16.60;96.04
25232;BME280;13176;51.140;6.290;2023-05-11T01:02:10;100670.16;;;16.35;96.10
25232;BME280;13176;51.140;6.290;2023-05-11T01:04:36;100726.88;;;16.66;96.35
25232;BME280;13176;51.140;6.290;2023-05-11T01:07:19;100701.75;;;16.58;95.44
25232;BME280;13176;51.140;6.290;2023-05-11T01:10:03;100732.91;;;16.70;96.18
25232;BME280;13176;51.140;6.290;2023-05-11T01:12:56;100708.84;;;16.56;96.23
25232;BME280;13176;51.140;6.290;2023-05-11T01:15:31;100714.72;;;16.62;96.02
25232;BME280;13176;51.140;6.290;2023-05-11T01:18:17;100735.28;;;16.76;96.13
25232;BME280;13176;51.140;6.290;2023-05-11T01:20:47;100704.28;;;16.61;95.73
25232;BME280;13176;51.140;6.290;2023-05-11T01:23:32;100735.13;;;16.80;95.53
25232;BME280;13176;51.140;6.290;2023-05-11T01:29:12;100736.88;;;16.80;94.98
25232;BME280;13176;51.140;6.290;2023-05-11T01:31:46;100719.63;;;16.73;94.91
25232;BME280;13176;51.140;6.290;2023-05-11T01:34:19;100722.50;;;16.67;94.73
25232;BME280;13176;51.140;6.290;2023-05-11T01:36:55;100710.69;;;16.54;94.85
25232;BME280;13176;51.140;6.290;2023-05-11T01:39:31;100745.19;;;16.71;95.36
25232;BME280;13176;51.140;6.290;2023-05-11T01:42:03;100718.69;;;16.51;95.67
25232;BME280;13176;51.140;6.290;2023-05-11T01:44:32;100662.69;;;16.23;96.35
25232;BME280;13176;51.140;6.290;2023-05-11T01:47:00;100625.13;;;15.95;95.79
25232;BME280;13176;51.140;6.290;2023-05-11T01:49:29;100732.63;;;16.54;95.62
25232;BME280;13176;51.140;6.290;2023-05-11T01:52:00;100671.66;;;16.17;96.43
25232;BME280;13176;51.140;6.290;2023-05-11T01:54:28;100699.94;;;16.37;96.42
25232;BME280;13176;51.140;6.290;2023-05-11T01:56:56;100718.22;;;16.40;96.17
25232;BME280;13176;51.140;6.290;2023-05-11T01:59:25;100635.06;;;15.87;96.81
25232;BME280;13176;51.140;6.290;2023-05-11T02:01:51;100660.97;;;15.99;96.99
25232;BME280;13176;51.140;6.290;2023-05-11T02:04:18;100671.94;;;16.10;97.25
25232;BME280;13176;51.140;6.290;2023-05-11T02:06:47;100724.47;;;16.37;97.30
25232;BME280;13176;51.140;6.290;2023-05-11T02:09:15;100687.41;;;16.19;97.53
25232;BME280;13176;51.140;6.290;2023-05-11T02:11:44;100646.06;;;15.98;97.18
25232;BME280;13176;51.140;6.290;2023-05-11T02:14:13;100644.47;;;15.94;97.67
25232;BME280;13176;51.140;6.290;2023-05-11T02:16:40;100737.59;;;16.39;98.18
25232;BME280;13176;51.140;6.290;2023-05-11T02:19:07;100697.31;;;16.12;98.24
25232;BME280;13176;51.140;6.290;2023-05-11T02:21:35;100661.22;;;15.92;97.98
25232;BME280;13176;51.140;6.290;2023-05-11T02:24:04;100730.91;;;16.29;97.80
25232;BME280;13176;51.140;6.290;2023-05-11T02:26:31;100664.97;;;15.85;97.68
25232;BME280;13176;51.140;6.290;2023-05-11T02:28:58;100708.91;;;16.07;98.30
25232;BME280;13176;51.140;6.290;2023-05-11T02:31:28;100719.28;;;16.11;98.27
25232;BME280;13176;51.140;6.290;2023-05-11T02:34:08;100723.34;;;16.20;98.24
25232;BME280;13176;51.140;6.290;2023-05-11T02:36:37;100665.16;;;15.80;97.69
25232;BME280;13176;51.140;6.290;2023-05-11T02:39:06;100705.59;;;16.02;98.16
25232;BME280;13176;51.140;6.290;2023-05-11T02:41:38;100617.34;;;15.45;98.92
25232;BME280;13176;51.140;6.290;2023-05-11T02:44:10;100692.91;;;15.89;99.14
25232;BME280;13176;51.140;6.290;2023-05-11T02:46:38;100668.59;;;15.82;98.52
25232;BME280;13176;51.140;6.290;2023-05-11T02:49:09;100716.06;;;16.03;99.15
25232;BME280;13176;51.140;6.290;2023-05-11T02:51:38;100693.81;;;15.88;99.42
25232;BME280;13176;51.140;6.290;2023-05-11T02:54:07;100678.72;;;15.68;100.00
25232;BME280;13176;51.140;6.290;2023-05-11T02:56:37;100714.13;;;15.84;100.00
25232;BME280;13176;51.140;6.290;2023-05-11T02:59:04;100618.69;;;15.30;100.00
25232;BME280;13176;51.140;6.290;2023-05-11T03:01:32;100658.13;;;15.56;100.00
25232;BME280;13176;51.140;6.290;2023-05-11T03:04:02;100679.06;;;15.59;100.00
25232;BME280;13176;51.140;6.290;2023-05-11T03:06:29;100617.00;;;15.29;100.00
25232;BME280;13176;51.140;6.290;2023-05-11T03:08:56;100618.47;;;15.36;100.00
25232;BME280;13176;51.140;6.290;2023-05-11T03:11:24;100671.88;;;15.64;100.00
25232;BME280;13176;51.140;6.290;2023-05-11T03:13:51;100686.47;;;15.73;100.00
25232;BME280;13176;51.140;6.290;2023-05-11T03:16:19;100701.19;;;15.78;100.00
25232;BME280;13176;51.140;6.290;2023-05-11T03:18:48;100688.81;;;15.80;100.00
25232;BME280;13176;51.140;6.290;2023-05-11T03:21:16;100655.53;;;15.55;100.00
25232;BME280;13176;51.140;6.290;2023-05-11T03:23:44;100660.34;;;15.42;100.00
25232;BME280;13176;51.140;6.290;2023-05-11T03:26:11;100701.59;;;15.66;100.00
25232;BME280;13176;51.140;6.290;2023-05-11T03:28:39;100678.34;;;15.54;100.00
25232;BME280;13176;51.140;6.290;2023-05-11T03:31:08;100686.94;;;15.59;100.00
25232;BME280;13176;51.140;6.290;2023-05-11T03:33:35;100698.19;;;15.64;100.00
25232;BME280;13176;51.140;6.290;2023-05-11T03:36:02;100711.91;;;15.72;100.00
25232;BME280;13176;51.140;6.290;2023-05-11T03:38:30;100692.16;;;15.61;100.00
25232;BME280;13176;51.140;6.290;2023-05-11T03:40:57;100670.78;;;15.45;100.00
25232;BME280;13176;51.140;6.290;2023-05-11T03:43:26;100624.09;;;15.27;100.00
25232;BME280;13176;51.140;6.290;2023-05-11T03:45:55;100658.22;;;15.53;100.00
25232;BME280;13176;51.140;6.290;2023-05-11T03:48:22;100703.00;;;15.76;100.00
25232;BME280;13176;51.140;6.290;2023-05-11T03:50:49;100665.22;;;15.54;100.00
25232;BME280;13176;51.140;6.290;2023-05-11T03:53:16;100659.84;;;15.57;100.00
25232;BME280;13176;51.140;6.290;2023-05-11T03:55:43;100678.63;;;15.71;100.00
25232;BME280;13176;51.140;6.290;2023-05-11T03:58:09;100634.16;;;15.39;100.00
25232;BME280;13176;51.140;6.290;2023-05-11T04:00:38;100709.47;;;15.92;100.00
25232;BME280;13176;51.140;6.290;2023-05-11T04:03:05;100709.25;;;15.98;100.00
25232;BME280;13176;51.140;6.290;2023-05-11T04:05:32;100627.50;;;15.54;100.00
25232;BME280;13176;51.140;6.290;2023-05-11T04:07:58;100715.66;;;16.14;100.00
25232;BME280;13176;51.140;6.290;2023-05-11T04:10:25;100606.00;;;15.43;100.00
25232;BME280;13176;51.140;6.290;2023-05-11T04:12:51;100708.16;;;16.03;100.00
25232;BME280;13176;51.140;6.290;2023-05-11T04:15:18;100714.06;;;16.10;100.00
25232;BME280;13176;51.140;6.290;2023-05-11T04:17:45;100707.94;;;16.09;100.00
25232;BME280;13176;51.140;6.290;2023-05-11T04:20:11;100702.56;;;16.12;100.00
25232;BME280;13176;51.140;6.290;2023-05-11T04:22:38;100711.19;;;16.16;99.90
25232;BME280;13176;51.140;6.290;2023-05-11T04:25:04;100632.13;;;15.72;100.00
25232;BME280;13176;51.140;6.290;2023-05-11T04:27:32;100695.59;;;16.11;99.93
25232;BME280;13176;51.140;6.290;2023-05-11T04:30:00;100722.22;;;16.27;99.71
25232;BME280;13176;51.140;6.290;2023-05-11T04:32:26;100711.81;;;16.22;100.00
25232;BME280;13176;51.140;6.290;2023-05-11T04:34:54;100730.75;;;16.35;99.85
25232;BME280;13176;51.140;6.290;2023-05-11T04:37:21;100714.44;;;16.24;99.94
25232;BME280;13176;51.140;6.290;2023-05-11T04:39:47;100713.22;;;16.34;99.80
25232;BME280;13176;51.140;6.290;2023-05-11T04:42:14;100673.75;;;16.08;99.69
25232;BME280;13176;51.140;6.290;2023-05-11T04:44:40;100685.63;;;16.19;99.22
25232;BME280;13176;51.140;6.290;2023-05-11T04:47:06;100707.16;;;16.30;99.05
25232;BME280;13176;51.140;6.290;2023-05-11T04:49:33;100702.09;;;16.24;98.63
25232;BME280;13176;51.140;6.290;2023-05-11T04:51:59;100720.81;;;16.41;98.65
25232;BME280;13176;51.140;6.290;2023-05-11T04:54:26;100704.81;;;16.23;98.52
25232;BME280;13176;51.140;6.290;2023-05-11T04:56:52;100716.94;;;16.27;98.04
25232;BME280;13176;51.140;6.290;2023-05-11T04:59:19;100681.22;;;15.97;98.15
25232;BME280;13176;51.140;6.290;2023-05-11T05:01:45;100743.09;;;16.33;98.54
25232;BME280;13176;51.140;6.290;2023-05-11T05:04:12;100722.75;;;16.12;98.41
25232;BME280;13176;51.140;6.290;2023-05-11T05:06:40;100634.28;;;15.61;98.36
25232;BME280;13176;51.140;6.290;2023-05-11T05:09:06;100738.44;;;16.15;98.69
25232;BME280;13176;51.140;6.290;2023-05-11T05:11:32;100738.34;;;16.18;98.33
25232;BME280;13176;51.140;6.290;2023-05-11T05:14:02;100672.72;;;15.89;98.66
25232;BME280;13176;51.140;6.290;2023-05-11T05:16:28;100695.06;;;16.02;98.33
25232;BME280;13176;51.140;6.290;2023-05-11T05:18:57;100757.59;;;16.44;98.62
25232;BME280;13176;51.140;6.290;2023-05-11T05:21:24;100727.38;;;16.30;97.39
25232;BME280;13176;51.140;6.290;2023-05-11T05:23:50;100755.66;;;16.49;97.67
25232;BME280;13176;51.140;6.290;2023-05-11T05:26:17;100753.28;;;16.42;96.89
25232;BME280;13176;51.140;6.290;2023-05-11T05:28:43;100743.03;;;16.34;96.85
25232;BME280;13176;51.140;6.290;2023-05-11T05:31:10;100755.44;;;16.31;96.93
25232;BME280;13176;51.140;6.290;2023-05-11T05:33:36;100687.63;;;15.89;97.00
25232;BME280;13176;51.140;6.290;2023-05-11T05:36:17;100786.38;;;16.49;96.76
25232;BME280;13176;51.140;6.290;2023-05-11T05:38:43;100703.28;;;15.93;96.90
25232;BME280;13176;51.140;6.290;2023-05-11T05:41:09;100738.50;;;16.13;97.28
25232;BME280;13176;51.140;6.290;2023-05-11T05:43:36;100770.25;;;16.35;96.79
25232;BME280;13176;51.140;6.290;2023-05-11T05:46:02;100750.38;;;16.25;96.81
25232;BME280;13176;51.140;6.290;2023-05-11T05:48:29;100750.03;;;16.35;95.68
25232;BME280;13176;51.140;6.290;2023-05-11T05:50:55;100715.25;;;16.01;95.34
25232;BME280;13176;51.140;6.290;2023-05-11T05:53:22;100781.34;;;16.43;95.72
25232;BME280;13176;51.140;6.290;2023-05-11T05:55:48;100779.28;;;16.51;96.24
25232;BME280;13176;51.140;6.290;2023-05-11T05:58:14;100738.56;;;16.12;95.41
25232;BME280;13176;51.140;6.290;2023-05-11T06:00:41;100787.69;;;16.37;95.38
25232;BME280;13176;51.140;6.290;2023-05-11T06:03:07;100795.00;;;16.54;95.88
25232;BME280;13176;51.140;6.290;2023-05-11T06:05:34;100796.50;;;16.61;95.20
25232;BME280;13176;51.140;6.290;2023-05-11T06:08:00;100726.41;;;16.32;95.52
25232;BME280;13176;51.140;6.290;2023-05-11T06:10:36;100736.63;;;16.17;95.10
25232;BME280;13176;51.140;6.290;2023-05-11T06:13:03;100785.13;;;16.36;95.19
25232;BME280;13176;51.140;6.290;2023-05-11T06:15:29;100720.44;;;16.03;95.05
25232;BME280;13176;51.140;6.290;2023-05-11T06:17:56;100709.34;;;15.95;95.21
25232;BME280;13176;51.140;6.290;2023-05-11T06:20:22;100789.59;;;16.57;95.09
25232;BME280;13176;51.140;6.290;2023-05-11T06:22:49;100810.81;;;16.77;94.66
25232;BME280;13176;51.140;6.290;2023-05-11T06:25:15;100794.06;;;16.78;93.34
25232;BME280;13176;51.140;6.290;2023-05-11T06:27:42;100802.56;;;16.86;93.43
25232;BME280;13176;51.140;6.290;2023-05-11T06:30:08;100792.53;;;16.95;94.50
25232;BME280;13176;51.140;6.290;2023-05-11T06:32:35;100799.22;;;16.81;93.23
25232;BME280;13176;51.140;6.290;2023-05-11T06:35:01;100789.81;;;16.51;94.01
25232;BME280;13176;51.140;6.290;2023-05-11T06:37:28;100776.91;;;16.68;93.97
25232;BME280;13176;51.140;6.290;2023-05-11T06:39:55;100772.41;;;16.47;92.82
25232;BME280;13176;51.140;6.290;2023-05-11T06:42:21;100762.97;;;16.41;92.48
25232;BME280;13176;51.140;6.290;2023-05-11T06:44:48;100798.09;;;16.65;92.91
25232;BME280;13176;51.140;6.290;2023-05-11T06:47:15;100811.22;;;16.66;92.89
25232;BME280;13176;51.140;6.290;2023-05-11T06:49:41;100715.44;;;16.20;92.91
25232;BME280;13176;51.140;6.290;2023-05-11T06:52:08;100816.78;;;16.82;92.50
25232;BME280;13176;51.140;6.290;2023-05-11T06:54:34;100803.59;;;16.59;92.00
25232;BME280;13176;51.140;6.290;2023-05-11T06:57:01;100768.66;;;16.54;92.75
25232;BME280;13176;51.140;6.290;2023-05-11T06:59:30;100717.06;;;16.24;91.68
25232;BME280;13176;51.140;6.290;2023-05-11T07:01:57;100826.38;;;16.60;91.42
25232;BME280;13176;51.140;6.290;2023-05-11T07:04:24;100738.00;;;16.27;92.16
25232;BME280;13176;51.140;6.290;2023-05-11T07:06:51;100797.88;;;16.71;91.10
25232;BME280;13176;51.140;6.290;2023-05-11T07:09:17;100804.50;;;16.81;91.79
25232;BME280;13176;51.140;6.290;2023-05-11T07:11:44;100758.31;;;16.48;92.10
25232;BME280;13176;51.140;6.290;2023-05-11T07:14:10;100727.59;;;16.24;91.37
25232;BME280;13176;51.140;6.290;2023-05-11T07:16:37;100743.50;;;16.45;91.85
25232;BME280;13176;51.140;6.290;2023-05-11T07:19:04;100761.91;;;16.70;91.55
25232;BME280;13176;51.140;6.290;2023-05-11T07:21:31;100832.91;;;17.18;91.89
25232;BME280;13176;51.140;6.290;2023-05-11T07:24:00;100814.88;;;17.08;91.19
25232;BME280;13176;51.140;6.290;2023-05-11T07:26:26;100807.69;;;17.12;91.05
25232;BME280;13176;51.140;6.290;2023-05-11T07:28:53;100741.25;;;16.81;90.22
25232;BME280;13176;51.140;6.290;2023-05-11T07:31:20;100811.81;;;17.18;90.49
25232;BME280;13176;51.140;6.290;2023-05-11T07:33:46;100812.44;;;17.04;89.60
25232;BME280;13176;51.140;6.290;2023-05-11T07:36:13;100809.31;;;16.93;88.97
25232;BME280;13176;51.140;6.290;2023-05-11T07:38:39;100816.91;;;17.02;90.42
25232;BME280;13176;51.140;6.290;2023-05-11T07:41:06;100750.44;;;16.71;90.23
25232;BME280;13176;51.140;6.290;2023-05-11T07:43:36;100819.66;;;16.99;90.07
25232;BME280;13176;51.140;6.290;2023-05-11T07:46:02;100800.78;;;16.63;90.11
25232;BME280;13176;51.140;6.290;2023-05-11T07:48:29;100808.06;;;16.80;90.12
25232;BME280;13176;51.140;6.290;2023-05-11T07:50:55;100829.75;;;17.11;89.54
25232;BME280;13176;51.140;6.290;2023-05-11T07:53:22;100832.13;;;17.16;89.29
25232;BME280;13176;51.140;6.290;2023-05-11T07:55:52;100765.78;;;16.83;90.05
25232;BME280;13176;51.140;6.290;2023-05-11T07:58:19;100727.66;;;16.70;89.51
25232;BME280;13176;51.140;6.290;2023-05-11T08:00:46;100751.56;;;16.87;89.12
25232;BME280;13176;51.140;6.290;2023-05-11T08:03:12;100800.03;;;17.06;89.37
25232;BME280;13176;51.140;6.290;2023-05-11T08:05:39;100791.91;;;16.89;87.75
25232;BME280;13176;51.140;6.290;2023-05-11T08:08:06;100763.13;;;16.83;88.53
25232;BME280;13176;51.140;6.290;2023-05-11T08:10:34;100779.97;;;17.02;88.48
25232;BME280;13176;51.140;6.290;2023-05-11T08:13:01;100807.59;;;17.37;88.35
25232;BME280;13176;51.140;6.290;2023-05-11T08:15:28;100779.50;;;17.36;87.61
25232;BME280;13176;51.140;6.290;2023-05-11T08:17:54;100816.63;;;17.30;85.73
25232;BME280;13176;51.140;6.290;2023-05-11T08:20:21;100748.50;;;16.97;86.13
25232;BME280;13176;51.140;6.290;2023-05-11T08:22:48;100837.31;;;17.42;84.80
25232;BME280;13176;51.140;6.290;2023-05-11T08:25:50;100771.28;;;17.00;84.92
25232;BME280;13176;51.140;6.290;2023-05-11T08:29:17;100828.34;;;17.46;84.51
25232;BME280;13176;51.140;6.290;2023-05-11T08:31:48;100745.81;;;16.99;86.25
25232;BME280;13176;51.140;6.290;2023-05-11T08:34:15;100821.31;;;17.67;85.74
25232;BME280;13176;51.140;6.290;2023-05-11T08:36:48;100773.03;;;17.65;84.94
25232;BME280;13176;51.140;6.290;2023-05-11T08:39:14;100829.69;;;18.19;83.34
25232;BME280;13176;51.140;6.290;2023-05-11T08:42:01;100802.69;;;17.91;82.43
25232;BME280;13176;51.140;6.290;2023-05-11T08:44:32;100747.78;;;17.79;82.71
25232;BME280;13176;51.140;6.290;2023-05-11T08:46:59;100822.56;;;18.41;81.80
25232;BME280;13176;51.140;6.290;2023-05-11T08:49:46;100742.88;;;17.70;80.18
25232;BME280;13176;51.140;6.290;2023-05-11T08:52:13;100633.72;;;17.31;82.02
25232;BME280;13176;51.140;6.290;2023-05-11T08:54:40;100778.91;;;18.33;80.21
25232;BME280;13176;51.140;6.290;2023-05-11T08:57:07;100746.47;;;18.29;78.82
25232;BME280;13176;51.140;6.290;2023-05-11T08:59:34;100822.78;;;18.75;78.66
25232;BME280;13176;51.140;6.290;2023-05-11T09:02:03;100821.75;;;18.59;77.95
25232;BME280;13176;51.140;6.290;2023-05-11T09:04:30;100719.44;;;18.03;77.78
25232;BME280;13176;51.140;6.290;2023-05-11T09:06:57;100719.13;;;17.90;77.64
25232;BME280;13176;51.140;6.290;2023-05-11T09:09:24;100737.88;;;18.04;76.38
25232;BME280;13176;51.140;6.290;2023-05-11T09:11:54;100702.28;;;17.93;76.12
25232;BME280;13176;51.140;6.290;2023-05-11T09:14:21;100710.88;;;17.98;76.52
25232;BME280;13176;51.140;6.290;2023-05-11T09:16:52;100810.34;;;18.77;76.06
25232;BME280;13176;51.140;6.290;2023-05-11T09:19:19;100817.63;;;18.72;76.03
25232;BME280;13176;51.140;6.290;2023-05-11T09:21:46;100669.47;;;17.98;74.42
25232;BME280;13176;51.140;6.290;2023-05-11T09:24:13;100729.00;;;18.45;75.29
25232;BME280;13176;51.140;6.290;2023-05-11T09:26:42;100764.38;;;18.61;74.25
25232;BME280;13176;51.140;6.290;2023-05-11T09:29:11;100802.94;;;18.85;73.89
25232;BME280;13176;51.140;6.290;2023-05-11T09:31:38;100845.97;;;19.07;73.91
25232;BME280;13176;51.140;6.290;2023-05-11T09:34:15;100841.16;;;19.35;73.40
25232;BME280;13176;51.140;6.290;2023-05-11T09:36:44;100633.25;;;18.20;73.54
25232;BME280;13176;51.140;6.290;2023-05-11T09:39:13;100779.66;;;18.93;72.40
25232;BME280;13176;51.140;6.290;2023-05-11T09:41:42;100684.28;;;18.59;71.83
25232;BME280;13176;51.140;6.290;2023-05-11T09:44:09;100840.72;;;19.44;70.73
25232;BME280;13176;51.140;6.290;2023-05-11T09:46:45;100718.81;;;18.56;72.16
25232;BME280;13176;51.140;6.290;2023-05-11T09:49:12;100824.94;;;19.04;71.82
25232;BME280;13176;51.140;6.290;2023-05-11T09:51:39;100831.16;;;19.23;72.28
25232;BME280;13176;51.140;6.290;2023-05-11T09:54:17;100843.88;;;19.15;72.54
25232;BME280;13176;51.140;6.290;2023-05-11T09:56:52;100752.78;;;18.45;72.10
25232;BME280;13176;51.140;6.290;2023-05-11T09:59:38;100848.69;;;18.87;71.99
25232;BME280;13176;51.140;6.290;2023-05-11T10:02:21;100850.31;;;18.89;72.15
25232;BME280;13176;51.140;6.290;2023-05-11T10:04:53;100769.03;;;18.16;71.73
25232;BME280;13176;51.140;6.290;2023-05-11T10:07:33;100826.09;;;18.80;72.50
25232;BME280;13176;51.140;6.290;2023-05-11T10:10:05;100809.66;;;18.92;72.40
25232;BME280;13176;51.140;6.290;2023-05-11T10:12:33;100646.59;;;18.17;72.28
25232;BME280;13176;51.140;6.290;2023-05-11T10:15:07;100832.00;;;19.42;71.31
25232;BME280;13176;51.140;6.290;2023-05-11T10:17:35;100840.13;;;19.74;70.16
25232;BME280;13176;51.140;6.290;2023-05-11T10:20:04;100821.22;;;19.63;69.91
25232;BME280;13176;51.140;6.290;2023-05-11T10:22:31;100750.06;;;19.22;66.96
25232;BME280;13176;51.140;6.290;2023-05-11T10:24:59;100831.19;;;19.93;66.88
25232;BME280;13176;51.140;6.290;2023-05-11T10:27:28;100703.25;;;19.04;67.32
25232;BME280;13176;51.140;6.290;2023-05-11T10:29:54;100843.16;;;19.48;68.77
25232;BME280;13176;51.140;6.290;2023-05-11T10:32:24;100782.09;;;19.16;67.88
25232;BME280;13176;51.140;6.290;2023-05-11T10:34:50;100682.56;;;18.58;67.46
25232;BME280;13176;51.140;6.290;2023-05-11T10:37:17;100826.28;;;19.14;69.52
25232;BME280;13176;51.140;6.290;2023-05-11T10:39:44;100784.84;;;19.13;68.27
25232;BME280;13176;51.140;6.290;2023-05-11T10:42:21;100839.09;;;19.76;67.92
25232;BME280;13176;51.140;6.290;2023-05-11T10:45:15;100776.38;;;19.25;67.90
25232;BME280;13176;51.140;6.290;2023-05-11T10:48:08;100838.13;;;19.60;68.06
25232;BME280;13176;51.140;6.290;2023-05-11T10:51:11;100834.97;;;19.71;66.33
25232;BME280;13176;51.140;6.290;2023-05-11T10:53:49;100844.53;;;19.73;65.96
25232;BME280;13176;51.140;6.290;2023-05-11T10:56:41;100725.31;;;18.86;66.72
25232;BME280;13176;51.140;6.290;2023-05-11T10:59:26;100852.78;;;19.67;65.86
25232;BME280;13176;51.140;6.290;2023-05-11T11:01:55;100853.13;;;19.78;65.59
25232;BME280;13176;51.140;6.290;2023-05-11T11:04:24;100780.34;;;19.33;65.41
25232;BME280;13176;51.140;6.290;2023-05-11T11:07:04;100843.78;;;19.53;66.62
25232;BME280;13176;51.140;6.290;2023-05-11T11:09:55;100843.28;;;19.63;66.68
25232;BME280;13176;51.140;6.290;2023-05-11T11:12:23;100833.00;;;19.57;67.47
25232;BME280;13176;51.140;6.290;2023-05-11T11:15:03;100693.13;;;18.58;67.75
25232;BME280;13176;51.140;6.290;2023-05-11T11:17:34;100818.09;;;19.55;68.75
25232;BME280;13176;51.140;6.290;2023-05-11T11:20:02;100830.28;;;19.41;67.08
25232;BME280;13176;51.140;6.290;2023-05-11T11:25:10;100821.69;;;19.36;66.86
25232;BME280;13176;51.140;6.290;2023-05-11T11:30:26;100819.56;;;19.25;66.49
25232;BME280;13176;51.140;6.290;2023-05-11T11:32:56;100822.41;;;19.57;65.92
25232;BME280;13176;51.140;6.290;2023-05-11T11:35:44;100749.03;;;18.87;65.64
25232;BME280;13176;51.140;6.290;2023-05-11T11:38:13;100825.84;;;19.41;66.18
25232;BME280;13176;51.140;6.290;2023-05-11T11:40:42;100763.69;;;19.13;66.88
25232;BME280;13176;51.140;6.290;2023-05-11T11:43:16;100826.13;;;19.53;67.55
25232;BME280;13176;51.140;6.290;2023-05-11T11:45:51;100827.22;;;19.66;67.56
25232;BME280;13176;51.140;6.290;2023-05-11T11:48:35;100772.28;;;19.53;67.17
25232;BME280;13176;51.140;6.290;2023-05-11T11:51:07;100727.16;;;19.21;66.82
25232;BME280;13176;51.140;6.290;2023-05-11T12:01:11;100745.63;;;19.57;65.70
25232;BME280;13176;51.140;6.290;2023-05-11T12:03:39;100810.88;;;19.75;64.92
25232;BME280;13176;51.140;6.290;2023-05-11T12:06:08;100807.31;;;19.76;65.85
25232;BME280;13176;51.140;6.290;2023-05-11T12:08:35;100741.63;;;19.14;67.25
25232;BME280;13176;51.140;6.290;2023-05-11T12:11:03;100777.00;;;19.11;67.42
25232;BME280;13176;51.140;6.290;2023-05-11T12:13:31;100812.69;;;19.40;66.47
25232;BME280;13176;51.140;6.290;2023-05-11T12:16:12;100818.97;;;19.55;66.60
25232;BME280;13176;51.140;6.290;2023-05-11T12:18:50;100824.97;;;19.41;66.19
25232;BME280;13176;51.140;6.290;2023-05-11T12:21:21;100638.81;;;18.88;64.71
25232;BME280;13176;51.140;6.290;2023-05-11T12:23:55;100666.38;;;19.01;64.47
25232;BME280;13176;51.140;6.290;2023-05-11T12:26:23;100811.28;;;20.37;62.60
25232;BME280;13176;51.140;6.290;2023-05-11T12:29:13;100785.53;;;20.22;62.67
25232;BME280;13176;51.140;6.290;2023-05-11T12:31:42;100716.69;;;20.53;62.26
25232;BME280;13176;51.140;6.290;2023-05-11T12:34:19;100712.66;;;21.09;61.15
25232;BME280;13176;51.140;6.290;2023-05-11T12:36:52;100805.56;;;22.16;58.79
25232;BME280;13176;51.140;6.290;2023-05-11T12:39:32;100712.16;;;21.18;57.39
25232;BME280;13176;51.140;6.290;2023-05-11T12:42:01;100717.34;;;21.20;57.95
25232;BME280;13176;51.140;6.290;2023-05-11T12:44:27;100648.72;;;20.83;56.97
25232;BME280;13176;51.140;6.290;2023-05-11T12:46:54;100789.06;;;21.66;57.97
25232;BME280;13176;51.140;6.290;2023-05-11T12:49:22;100680.16;;;21.06;56.09
25232;BME280;13176;51.140;6.290;2023-05-11T12:52:03;100797.91;;;21.96;57.75
25232;BME280;13176;51.140;6.290;2023-05-11T12:54:47;100804.97;;;21.82;56.80
25232;BME280;13176;51.140;6.290;2023-05-11T12:57:27;100729.25;;;20.82;58.17
25232;BME280;13176;51.140;6.290;2023-05-11T13:00:07;100797.09;;;21.34;59.30
25232;BME280;13176;51.140;6.290;2023-05-11T13:02:47;100766.09;;;21.03;58.19
25232;BME280;13176;51.140;6.290;2023-05-11T13:05:15;100770.78;;;20.83;59.08
25232;BME280;13176;51.140;6.290;2023-05-11T13:07:42;100700.38;;;20.13;60.06
25232;BME280;13176;51.140;6.290;2023-05-11T13:10:11;100783.66;;;20.90;59.94
25232;BME280;13176;51.140;6.290;2023-05-11T13:12:49;100776.19;;;20.97;59.49
25232;BME280;13176;51.140;6.290;2023-05-11T13:15:17;100649.16;;;19.95;58.47
25232;BME280;13176;51.140;6.290;2023-05-11T13:17:45;100624.25;;;19.99;58.82